SHMÚ 65 rokov / 1954-2019 - Ďakujeme našim partnerom
SHMÚ 65 rokov / 1954-2019 - Ďakujeme mediálnym partnerom


SHMÚ vydal meteorologické výstrahy na Ground frost Display warnings

TAF

Aerodrome Forecast TAF

TAF description (Slovak)

21.09.2019 - 11:00 UTC

TAF LZIB 211100Z 2112/2212 14010KT CAVOK
    BECMG 2120/2122 11004KT
    BECMG 2208/2210 13012KT
    TEMPO 2210/2212 15015G25KT=
TAF LZKZ 211100Z 2112/2212 22010KT CAVOK
    TEMPO 2112/2115 23013G23KT
    BECMG 2118/2120 VRB02KT
    BECMG 2208/2210 20011KT=
TAF LZTT 211100Z 2112/2212 VRB02KT CAVOK
    TEMPO 2112/2116 30007KT 9999 FEW060
    TEMPO 2200/2208 2000 BR SCT004
    PROB40 TEMPO 2201/2206 0700 FG BKN001=

21.09.2019 - 11:00 UTC

TAF LZSL 211100Z 2112/2121 16007KT CAVOK
    TEMPO 2112/2116 22010KT 9999 SCT040
    BECMG 2118/2120 VRB02KT=
TAF LZPP 211100Z 2112/2121 15006KT CAVOK
    TEMPO 2112/2115 21013KT=
TAF LZZI 211100Z 2112/2121 26008KT CAVOK
    BECMG 2117/2119 VRB02KT=

21.09.2019 - 08:00 UTC

TAF LZSL 210800Z 2109/2118 VRB02KT CAVOK
    BECMG 2109/2111 14006KT
    BECMG 2113/2115 21007KT=
TAF LZPP 210800Z 2109/2118 15006KT CAVOK
    TEMPO 2109/2114 21010KT=
TAF LZZI 210800Z 2109/2118 08005KT 9999 FEW015
    BECMG 2109/2111 25007KT CAVOK=

21.09.2019 - 05:00 UTC

TAF LZIB 210500Z 2106/2206 VRB02KT CAVOK
    BECMG 2108/2110 15007KT
    TEMPO 2110/2116 16015KT
    BECMG 2122/2200 08004KT=
TAF LZKZ 210500Z 2106/2206 VRB02KT CAVOK
    BECMG 2108/2110 22008KT
    TEMPO 2110/2115 21015KT
    BECMG 2118/2120 VRB02KT=
TAF LZTT 210500Z 2106/2206 VRB02KT CAVOK
    TEMPO 2110/2116 30007KT 9999 SCT060
    TEMPO 2200/2206 2000 BR SCT004
    PROB40 TEMPO 2201/2206 0700 FG BKN001=

21.09.2019 - 05:00 UTC

TAF LZSL 210500Z 2106/2115 VRB02KT CAVOK
    PROB40 TEMPO 2106/2107 5000 MIFG FEW004
    BECMG 2107/2109 14006KT
    BECMG 2113/2115 21008KT=
TAF LZPP 210500Z 2106/2115 VRB02KT CAVOK
    BECMG 2108/2110 21008KT=
TAF LZZI 210500Z 2106/2115 VRB02KT 9999 FEW015
    TEMPO 2106/2108 3000 BR SCT002
    PROB40 TEMPO 2106/2107 0800 FG BKN001
    BECMG 2109/2111 25006KT CAVOK=

21.09.2019 - 02:00 UTC

TAF LZSL 210200Z 2103/2112 VRB02KT CAVOK
    PROB40 TEMPO 2103/2107 5000 MIFG NSC
    BECMG 2107/2109 14006KT=
TAF LZZI 210200Z 2103/2112 VRB02KT 9999 FEW015
    TEMPO 2103/2108 2500 BR SCT002
    PROB40 TEMPO 2103/2106 0300 FG BKN001
    BECMG 2109/2111 25006KT CAVOK=

skok na menu ↑


skok na začiatok stránky ↑